createdAt,value
2022-09-20T00:00:43.060Z,43.90
2022-09-20T00:03:10.953Z,43.63
2022-09-20T00:05:39.868Z,44.32
2022-09-20T00:08:10.433Z,43.87
2022-09-20T00:10:39.339Z,44.60
2022-09-20T00:13:08.562Z,44.93
2022-09-20T00:15:41.302Z,45.26
2022-09-20T00:18:08.836Z,44.82
2022-09-20T00:20:35.700Z,44.98
2022-09-20T00:23:02.596Z,44.38
2022-09-20T00:25:30.318Z,45.98
2022-09-20T00:27:57.154Z,44.99
2022-09-20T00:30:24.207Z,44.78
2022-09-20T00:32:51.045Z,44.65
2022-09-20T00:35:17.850Z,44.86
2022-09-20T00:37:44.841Z,44.49
2022-09-20T00:40:20.608Z,44.04
2022-09-20T00:42:48.023Z,43.90
2022-09-20T00:45:20.747Z,43.68
2022-09-20T00:47:55.779Z,44.74
2022-09-20T00:50:52.684Z,44.54
2022-09-20T00:53:22.103Z,43.70
2022-09-20T00:56:07.233Z,44.50
2022-09-20T00:58:39.924Z,45.90
2022-09-20T01:01:07.536Z,45.25
2022-09-20T01:03:37.040Z,43.89
2022-09-20T01:06:11.804Z,44.43
2022-09-20T01:08:42.235Z,44.73
2022-09-20T01:11:09.234Z,45.23
2022-09-20T01:13:35.942Z,44.99
2022-09-20T01:16:05.188Z,44.01
2022-09-20T01:18:34.833Z,44.88
2022-09-20T01:21:03.009Z,44.07
2022-09-20T01:24:08.452Z,44.02
2022-09-20T01:26:52.636Z,43.00
2022-09-20T01:29:47.998Z,43.97
2022-09-20T01:32:25.684Z,42.23
2022-09-20T01:34:57.511Z,42.37
2022-09-20T01:37:28.086Z,43.04
2022-09-20T01:40:21.227Z,43.02
2022-09-20T01:43:02.718Z,43.00
2022-09-20T01:45:32.236Z,43.03
2022-09-20T01:48:13.628Z,43.24
2022-09-20T01:51:10.697Z,44.12
2022-09-20T01:54:10.445Z,44.24
2022-09-20T01:56:55.113Z,43.59
2022-09-20T01:59:43.658Z,43.87
2022-09-20T02:02:10.527Z,44.41
2022-09-20T02:05:14.744Z,43.82
2022-09-20T02:08:15.622Z,43.26
2022-09-20T02:10:50.855Z,44.90
2022-09-20T02:13:30.225Z,44.90
2022-09-20T02:16:38.663Z,45.28
2022-09-20T02:19:42.924Z,44.68
2022-09-20T02:22:31.188Z,45.15
2022-09-20T02:25:40.085Z,44.16
2022-09-20T02:28:34.974Z,44.13
2022-09-20T02:31:34.813Z,43.81
2022-09-20T02:34:23.043Z,45.49
2022-09-20T02:36:55.707Z,44.67
2022-09-20T02:39:31.930Z,44.61
2022-09-20T02:42:11.276Z,45.07
2022-09-20T02:45:10.550Z,44.27
2022-09-20T02:47:39.867Z,44.33
2022-09-20T02:50:22.150Z,44.20
2022-09-20T02:53:24.080Z,44.42
2022-09-20T02:55:50.848Z,46.05
2022-09-20T02:58:35.592Z,44.77
2022-09-20T03:01:21.190Z,45.76
2022-09-20T03:04:12.099Z,45.27
2022-09-20T03:06:54.283Z,47.74
2022-09-20T03:09:51.876Z,48.00
2022-09-20T03:12:37.535Z,47.94
2022-09-20T03:15:30.674Z,47.43
2022-09-20T03:18:11.126Z,47.02
2022-09-20T03:21:26.784Z,47.00
2022-09-20T03:24:11.887Z,49.01
2022-09-20T03:26:55.271Z,47.24
2022-09-20T03:29:49.545Z,48.40
2022-09-20T03:32:46.536Z,49.16
2022-09-20T03:35:25.277Z,48.24
2022-09-20T03:38:30.105Z,47.65
2022-09-20T03:41:15.547Z,47.72
2022-09-20T03:43:57.133Z,47.05
2022-09-20T03:46:29.288Z,46.86
2022-09-20T03:49:19.499Z,47.22
2022-09-20T03:52:10.135Z,47.29
2022-09-20T03:54:55.709Z,47.74
2022-09-20T03:57:47.621Z,46.35
2022-09-20T04:00:20.793Z,46.55
2022-09-20T04:02:59.663Z,47.12
2022-09-20T04:05:54.194Z,46.22
2022-09-20T04:08:45.087Z,46.14
2022-09-20T04:11:28.880Z,45.46
2022-09-20T04:14:11.542Z,45.32
2022-09-20T04:16:51.435Z,47.18
2022-09-20T04:19:32.762Z,47.05
2022-09-20T04:22:01.685Z,45.49
2022-09-20T04:24:28.866Z,45.87
2022-09-20T04:27:01.456Z,45.77
2022-09-20T04:29:51.462Z,44.87
2022-09-20T04:32:25.685Z,45.44
2022-09-20T04:35:24.377Z,46.64
2022-09-20T04:37:53.490Z,45.77
2022-09-20T04:40:23.032Z,44.94
2022-09-20T04:43:04.905Z,46.13
2022-09-20T04:45:40.809Z,47.01
2022-09-20T04:48:39.924Z,46.90
2022-09-20T04:51:28.641Z,47.43
2022-09-20T04:54:37.132Z,46.13
2022-09-20T04:57:25.371Z,47.45
2022-09-20T05:00:04.393Z,47.29
2022-09-20T05:02:55.693Z,46.91
2022-09-20T05:05:25.851Z,46.49
2022-09-20T05:08:07.507Z,46.28
2022-09-20T05:11:13.280Z,45.97
2022-09-20T05:14:20.273Z,46.07
2022-09-20T05:17:25.607Z,47.09
2022-09-20T05:20:24.247Z,46.26
2022-09-20T05:23:00.161Z,47.23
2022-09-20T05:25:47.515Z,47.06
2022-09-20T05:28:43.511Z,46.01
2022-09-20T05:31:30.479Z,46.85
2022-09-20T05:34:18.343Z,47.31
2022-09-20T05:36:56.259Z,47.16
2022-09-20T05:39:58.357Z,46.76
2022-09-20T05:42:44.258Z,46.47
2022-09-20T05:45:27.074Z,46.32
2022-09-20T05:48:04.955Z,45.76
2022-09-20T05:50:41.925Z,46.41
2022-09-20T05:53:56.813Z,45.49
2022-09-20T05:56:35.020Z,45.14
2022-09-20T05:59:09.815Z,45.46
2022-09-20T06:02:03.670Z,45.27
2022-09-20T06:04:42.984Z,46.22
2022-09-20T06:07:28.109Z,45.49
2022-09-20T06:10:15.936Z,45.00
2022-09-20T06:13:20.646Z,44.65
2022-09-20T06:16:00.857Z,45.20
2022-09-20T06:19:01.734Z,44.87
2022-09-20T06:21:50.106Z,43.97
2022-09-20T06:24:23.062Z,44.57
2022-09-20T06:26:53.843Z,44.55
2022-09-20T06:29:30.315Z,44.22
2022-09-20T06:31:57.163Z,43.86
2022-09-20T06:34:24.740Z,44.50
2022-09-20T06:37:17.483Z,44.31
2022-09-20T06:40:12.576Z,44.20
2022-09-20T06:42:39.463Z,44.09
2022-09-20T06:45:06.626Z,43.72
2022-09-20T06:47:38.031Z,43.84
2022-09-20T06:50:06.415Z,43.67
2022-09-20T06:52:34.540Z,43.36
2022-09-20T06:55:01.831Z,42.69
2022-09-20T06:57:36.069Z,42.25
2022-09-20T07:00:03.465Z,42.31
2022-09-20T07:02:30.392Z,42.71
2022-09-20T07:04:57.563Z,41.80
2022-09-20T07:07:25.505Z,41.54
2022-09-20T07:09:52.228Z,42.04
2022-09-20T07:12:19.198Z,40.71
2022-09-20T07:14:45.861Z,41.24
2022-09-20T07:17:13.335Z,41.61
2022-09-20T07:19:40.051Z,41.55
2022-09-20T07:22:06.713Z,41.50
2022-09-20T07:24:35.055Z,41.29
2022-09-20T07:27:05.038Z,41.05
2022-09-20T07:29:31.991Z,41.78
2022-09-20T07:31:58.877Z,39.94
2022-09-20T07:34:27.279Z,40.14
2022-09-20T07:36:54.158Z,38.92
2022-09-20T07:39:21.444Z,39.47
2022-09-20T07:41:51.150Z,39.39
2022-09-20T07:44:21.634Z,39.19
2022-09-20T07:46:49.533Z,40.17
2022-09-20T07:49:16.478Z,39.99
2022-09-20T07:51:43.247Z,38.85
2022-09-20T07:54:10.219Z,38.70
2022-09-20T07:56:37.048Z,38.41
2022-09-20T07:59:03.976Z,39.40
2022-09-20T08:01:30.872Z,38.53
2022-09-20T08:04:05.820Z,37.28
2022-09-20T08:06:35.919Z,37.71
2022-09-20T08:09:02.788Z,37.33
2022-09-20T08:11:30.772Z,36.13
2022-09-20T08:14:06.221Z,36.51
2022-09-20T08:16:45.214Z,37.22
2022-09-20T08:19:17.863Z,36.87
2022-09-20T08:21:53.890Z,36.23
2022-09-20T08:24:21.724Z,34.51
2022-09-20T08:26:48.729Z,34.66
2022-09-20T08:29:15.588Z,34.64
2022-09-20T08:31:42.777Z,33.47
2022-09-20T08:34:12.332Z,34.24
2022-09-20T08:36:42.255Z,32.92
2022-09-20T08:42:05.626Z,33.62
2022-09-20T08:45:00.080Z,33.34
2022-09-20T08:47:31.195Z,33.67
2022-09-20T08:49:59.327Z,32.62
2022-09-20T08:52:35.872Z,32.30
2022-09-20T08:55:13.619Z,31.93
2022-09-20T08:57:40.479Z,32.45
2022-09-20T09:00:17.637Z,32.97
2022-09-20T09:02:45.346Z,31.87
2022-09-20T09:05:37.748Z,32.79
2022-09-20T09:08:37.647Z,33.34
2022-09-20T09:11:09.676Z,33.13
2022-09-20T09:14:04.753Z,32.96
2022-09-20T09:16:36.099Z,30.71
2022-09-20T09:19:36.557Z,31.15
2022-09-20T09:22:06.064Z,30.52
2022-09-20T09:24:32.893Z,31.28
2022-09-20T09:27:16.588Z,32.39
2022-09-20T09:29:54.848Z,32.80
2022-09-20T09:32:23.908Z,32.80
2022-09-20T09:34:51.268Z,32.49
2022-09-20T09:37:31.316Z,29.57
2022-09-20T09:40:18.820Z,30.71
2022-09-20T09:43:06.110Z,31.74
2022-09-20T09:45:38.697Z,31.96
2022-09-20T09:48:40.293Z,32.48
2022-09-20T09:51:15.385Z,32.38
2022-09-20T09:53:43.604Z,32.39
2022-09-20T09:56:34.233Z,31.50
2022-09-20T09:59:46.894Z,32.39
2022-09-20T10:02:19.404Z,31.04
2022-09-20T10:05:01.739Z,32.26
2022-09-20T10:07:43.510Z,31.26
2022-09-20T10:10:26.731Z,30.89
2022-09-20T10:13:00.623Z,31.34
2022-09-20T10:15:41.232Z,31.53
2022-09-20T10:18:45.626Z,32.70
2022-09-20T10:21:12.537Z,30.53
2022-09-20T10:24:13.074Z,31.39
2022-09-20T10:26:58.022Z,31.12
2022-09-20T10:29:42.856Z,31.26
2022-09-20T10:32:27.566Z,30.50
2022-09-20T10:35:00.476Z,30.43
2022-09-20T10:37:32.239Z,31.20
2022-09-20T10:40:08.276Z,30.34
2022-09-20T10:43:05.038Z,29.36
2022-09-20T10:48:52.489Z,29.96
2022-09-20T10:51:41.520Z,30.09
2022-09-20T10:54:32.532Z,29.40
2022-09-20T10:57:52.605Z,29.52
2022-09-20T11:00:25.220Z,29.58
2022-09-20T11:03:13.060Z,29.15
2022-09-20T11:06:10.414Z,27.80
2022-09-20T11:08:40.680Z,28.82
2022-09-20T11:11:19.784Z,27.67
2022-09-20T11:13:57.997Z,27.46
2022-09-20T11:16:27.897Z,27.11
2022-09-20T11:18:59.259Z,27.56
2022-09-20T11:21:38.412Z,27.08
2022-09-20T11:24:32.665Z,28.25
2022-09-20T11:27:11.008Z,26.71
2022-09-20T11:30:04.715Z,27.56
2022-09-20T11:32:53.165Z,27.31
2022-09-20T11:35:42.499Z,26.48
2022-09-20T11:38:17.532Z,26.77
2022-09-20T11:41:02.529Z,28.12
2022-09-20T11:43:31.121Z,27.68
2022-09-20T11:46:10.796Z,28.03
2022-09-20T11:48:49.870Z,27.65
2022-09-20T11:51:50.980Z,27.29
2022-09-20T11:54:33.317Z,27.43
2022-09-20T11:57:00.623Z,26.93
2022-09-20T11:59:28.244Z,27.49
2022-09-20T12:01:59.456Z,26.29
2022-09-20T12:04:34.675Z,26.41
2022-09-20T12:07:18.013Z,26.23
2022-09-20T12:09:53.533Z,26.95
2022-09-20T12:12:38.569Z,26.30
2022-09-20T12:15:23.195Z,26.23
2022-09-20T12:17:50.057Z,25.66
2022-09-20T12:20:35.037Z,25.71
2022-09-20T12:23:40.417Z,26.13
2022-09-20T12:26:08.567Z,26.09
2022-09-20T12:28:40.781Z,25.70
2022-09-20T12:31:34.235Z,25.94
2022-09-20T12:34:15.923Z,25.58
2022-09-20T12:36:46.558Z,24.66
2022-09-20T12:39:17.558Z,26.41
2022-09-20T12:42:12.283Z,25.70
2022-09-20T12:44:51.107Z,25.47
2022-09-20T12:47:26.920Z,25.78
2022-09-20T12:50:15.174Z,24.86
2022-09-20T12:52:51.047Z,25.19
2022-09-20T12:55:37.993Z,24.88
2022-09-20T12:58:14.308Z,24.65
2022-09-20T13:00:45.397Z,25.96
2022-09-20T13:03:15.206Z,24.18
2022-09-20T13:05:46.723Z,24.84
2022-09-20T13:08:20.902Z,23.97
2022-09-20T13:11:09.346Z,25.39
2022-09-20T13:13:46.653Z,25.08
2022-09-20T13:16:31.699Z,24.63
2022-09-20T13:19:13.163Z,24.15
2022-09-20T13:21:45.085Z,23.92
2022-09-20T13:24:18.140Z,24.13
2022-09-20T13:26:47.980Z,23.24
2022-09-20T13:29:37.748Z,22.64
2022-09-20T13:32:25.899Z,22.29
2022-09-20T13:35:16.945Z,22.34
2022-09-20T13:37:55.266Z,22.87
2022-09-20T13:40:36.490Z,23.85
2022-09-20T13:43:23.146Z,23.94
2022-09-20T13:45:57.721Z,22.54
2022-09-20T13:48:29.559Z,22.70
2022-09-20T13:50:57.798Z,22.86
2022-09-20T13:53:41.471Z,22.17
2022-09-20T13:56:22.890Z,21.24
2022-09-20T13:58:51.463Z,21.55
2022-09-20T14:01:23.167Z,21.74
2022-09-20T14:03:50.165Z,21.41
2022-09-20T14:06:17.315Z,21.79
2022-09-20T14:08:51.310Z,20.49
2022-09-20T14:11:23.317Z,21.27
2022-09-20T14:13:56.948Z,21.03
2022-09-20T14:16:29.628Z,20.96
2022-09-20T14:18:58.533Z,21.69
2022-09-20T14:21:27.984Z,21.75
2022-09-20T14:23:58.155Z,22.63
2022-09-20T14:26:26.595Z,23.19
2022-09-20T14:28:54.025Z,22.96
2022-09-20T14:31:27.126Z,23.15
2022-09-20T14:33:57.837Z,23.12
2022-09-20T14:36:27.635Z,23.65
2022-09-20T14:39:05.338Z,23.60
2022-09-20T14:41:39.574Z,24.03
2022-09-20T14:44:23.742Z,23.42
2022-09-20T14:46:50.912Z,22.54
2022-09-20T14:49:26.524Z,22.98
2022-09-20T14:51:54.925Z,22.96
2022-09-20T14:54:30.878Z,24.10
2022-09-20T14:56:58.933Z,23.91
2022-09-20T14:59:30.315Z,23.45
2022-09-20T15:02:17.522Z,23.65
2022-09-20T15:04:56.213Z,23.56
2022-09-20T15:07:23.245Z,23.77
2022-09-20T15:09:50.248Z,24.11
2022-09-20T15:12:19.588Z,25.81
2022-09-20T15:14:47.402Z,25.56
2022-09-20T15:17:18.543Z,25.70
2022-09-20T15:19:46.484Z,25.77
2022-09-20T15:22:14.402Z,25.01
2022-09-20T15:24:42.305Z,26.68
2022-09-20T15:27:11.926Z,26.55
2022-09-20T15:29:39.344Z,26.09
2022-09-20T15:32:06.664Z,27.16
2022-09-20T15:34:33.511Z,27.06
2022-09-20T15:37:00.385Z,29.21
2022-09-20T15:39:28.050Z,29.04
2022-09-20T15:41:54.878Z,29.75
2022-09-20T15:44:21.977Z,29.67
2022-09-20T15:46:50.921Z,28.75
2022-09-20T15:49:17.747Z,28.96
2022-09-20T15:51:46.425Z,28.46
2022-09-20T15:54:14.687Z,29.51
2022-09-20T15:56:42.040Z,30.25
2022-09-20T15:59:10.905Z,29.53
2022-09-20T16:01:43.189Z,29.61
2022-09-20T16:04:12.723Z,29.30
2022-09-20T16:06:42.090Z,29.02
2022-09-20T16:09:09.213Z,28.70
2022-09-20T16:11:36.868Z,29.11
2022-09-20T16:14:03.719Z,29.50
2022-09-20T16:16:37.371Z,29.33
2022-09-20T16:19:20.104Z,30.50
2022-09-20T16:21:55.095Z,30.38
2022-09-20T16:24:29.852Z,31.25
2022-09-20T16:26:57.766Z,31.35
2022-09-20T16:29:25.990Z,31.85
2022-09-20T16:31:54.517Z,31.75
2022-09-20T16:34:30.677Z,32.59
2022-09-20T16:37:03.633Z,33.52
2022-09-20T16:39:31.672Z,33.16
2022-09-20T16:42:06.500Z,33.46
2022-09-20T16:44:35.655Z,33.25
2022-09-20T16:47:05.265Z,32.07
2022-09-20T16:49:32.035Z,31.83
2022-09-20T16:51:58.852Z,32.38
2022-09-20T16:54:29.670Z,33.61
2022-09-20T16:56:58.755Z,34.22
2022-09-20T16:59:25.515Z,32.96
2022-09-20T17:01:52.681Z,32.93
2022-09-20T17:04:21.089Z,32.85
2022-09-20T17:06:50.152Z,33.65
2022-09-20T17:09:17.433Z,34.27
2022-09-20T17:11:46.314Z,34.42
2022-09-20T17:14:14.989Z,33.78
2022-09-20T17:16:42.567Z,35.48
2022-09-20T17:19:11.822Z,35.15
2022-09-20T17:21:46.142Z,35.16
2022-09-20T17:24:14.179Z,35.39
2022-09-20T17:26:47.176Z,34.72
2022-09-20T17:29:17.182Z,34.39
2022-09-20T17:31:54.569Z,35.17
2022-09-20T17:34:23.884Z,35.40
2022-09-20T17:36:50.877Z,35.41
2022-09-20T17:39:18.487Z,35.50
2022-09-20T17:41:50.037Z,34.87
2022-09-20T17:44:18.056Z,35.49
2022-09-20T17:46:53.957Z,35.43
2022-09-20T17:49:23.063Z,35.87
2022-09-20T17:51:52.408Z,35.65
2022-09-20T17:54:19.778Z,35.70
2022-09-20T17:56:49.445Z,36.06
2022-09-20T17:59:18.070Z,36.03
2022-09-20T18:01:46.845Z,36.24
2022-09-20T18:04:13.966Z,35.72
2022-09-20T18:06:45.411Z,35.10
2022-09-20T18:09:24.833Z,35.06
2022-09-20T18:11:53.553Z,35.22
2022-09-20T18:14:28.078Z,34.86
2022-09-20T18:16:58.050Z,34.59
2022-09-20T18:19:25.002Z,34.33
2022-09-20T18:21:52.003Z,34.12
2022-09-20T18:24:18.857Z,33.66
2022-09-20T18:26:45.711Z,34.08
2022-09-20T18:29:16.709Z,34.10
2022-09-20T18:32:02.360Z,33.82
2022-09-20T18:34:33.613Z,34.23
2022-09-20T18:37:03.685Z,33.90
2022-09-20T18:39:33.367Z,33.85
2022-09-20T18:42:00.917Z,34.55
2022-09-20T18:44:28.270Z,34.19
2022-09-20T18:46:55.354Z,35.04
2022-09-20T18:49:22.588Z,34.67
2022-09-20T18:51:49.726Z,35.06
2022-09-20T18:54:17.435Z,34.98
2022-09-20T18:56:46.253Z,35.03
2022-09-20T18:59:16.731Z,34.95
2022-09-20T19:01:55.797Z,35.04
2022-09-20T19:04:47.321Z,34.76
2022-09-20T19:07:55.120Z,34.86
2022-09-20T19:10:43.872Z,34.90
2022-09-20T19:13:57.420Z,34.59
2022-09-20T19:16:41.000Z,34.71
2022-09-20T19:19:26.762Z,35.17
2022-09-20T19:22:05.790Z,34.86
2022-09-20T19:25:04.835Z,34.89
2022-09-20T19:27:32.034Z,35.21
2022-09-20T19:29:59.100Z,34.95
2022-09-20T19:32:27.827Z,34.76
2022-09-20T19:34:56.267Z,34.78
2022-09-20T19:37:42.676Z,35.30
2022-09-20T19:40:18.564Z,35.53
2022-09-20T19:42:53.096Z,35.38
2022-09-20T19:45:50.857Z,35.53
2022-09-20T19:48:28.833Z,36.25
2022-09-20T19:50:56.697Z,36.90
2022-09-20T19:53:28.195Z,36.87
2022-09-20T19:55:59.767Z,37.69
2022-09-20T19:58:27.133Z,37.78
2022-09-20T20:00:54.123Z,37.58
2022-09-20T20:03:26.154Z,37.76
2022-09-20T20:06:05.785Z,37.15
2022-09-20T20:08:43.402Z,37.22
2022-09-20T20:11:18.423Z,37.53
2022-09-20T20:14:03.193Z,37.92
2022-09-20T20:16:41.998Z,37.00
2022-09-20T20:19:18.986Z,36.76
2022-09-20T20:21:51.546Z,37.16
2022-09-20T20:24:21.238Z,37.19
2022-09-20T20:26:49.010Z,37.80
2022-09-20T20:29:15.843Z,38.49
2022-09-20T20:31:42.538Z,38.18
2022-09-20T20:34:09.510Z,37.51
2022-09-20T20:36:36.244Z,38.09
2022-09-20T20:39:03.348Z,38.49
2022-09-20T20:41:31.647Z,39.15
2022-09-20T20:43:58.402Z,38.76
2022-09-20T20:46:25.978Z,38.02
2022-09-20T20:48:52.907Z,37.94
2022-09-20T20:51:22.169Z,37.86
2022-09-20T20:53:51.012Z,38.43
2022-09-20T20:56:26.289Z,38.69
2022-09-20T20:58:54.323Z,37.78
2022-09-20T21:01:25.188Z,39.08
2022-09-20T21:03:53.921Z,39.24
2022-09-20T21:06:24.132Z,38.47
2022-09-20T21:08:50.911Z,39.44
2022-09-20T21:11:38.873Z,38.90
2022-09-20T21:14:07.396Z,38.93
2022-09-20T21:16:36.623Z,39.22
2022-09-20T21:19:05.679Z,38.95
2022-09-20T21:21:35.164Z,39.37
2022-09-20T21:24:05.057Z,40.14
2022-09-20T21:26:33.397Z,40.10
2022-09-20T21:29:02.926Z,40.11
2022-09-20T21:31:32.421Z,40.04
2022-09-20T21:34:00.015Z,40.49
2022-09-20T21:36:28.738Z,41.39
2022-09-20T21:38:55.814Z,40.66
2022-09-20T21:41:27.462Z,40.55
2022-09-20T21:43:55.963Z,41.15
2022-09-20T21:46:41.932Z,41.53
2022-09-20T21:49:10.958Z,42.34
2022-09-20T21:51:39.114Z,42.07
2022-09-20T21:54:06.454Z,41.97
2022-09-20T21:56:35.887Z,42.45
2022-09-20T21:59:04.393Z,43.27
2022-09-20T22:01:36.583Z,42.69
2022-09-20T22:04:09.433Z,42.15
2022-09-20T22:06:38.923Z,44.54
2022-09-20T22:09:08.823Z,43.63
2022-09-20T22:11:39.152Z,43.84
2022-09-20T22:14:07.159Z,42.86
2022-09-20T22:16:37.082Z,43.27
2022-09-20T22:19:05.190Z,42.94
2022-09-20T22:21:37.022Z,42.43
2022-09-20T22:24:07.763Z,43.55
2022-09-20T22:26:46.691Z,46.50
2022-09-20T22:29:14.266Z,45.48
2022-09-20T22:31:47.291Z,44.56
2022-09-20T22:34:16.922Z,44.53
2022-09-20T22:36:44.443Z,43.86
2022-09-20T22:39:12.484Z,43.32
2022-09-20T22:41:41.247Z,43.38
2022-09-20T22:44:08.662Z,43.29
2022-09-20T22:46:36.303Z,43.11
2022-09-20T22:49:05.829Z,42.79
2022-09-20T22:51:33.454Z,42.97
2022-09-20T22:54:04.257Z,44.27
2022-09-20T22:56:32.150Z,44.05
2022-09-20T22:59:10.007Z,44.14
2022-09-20T23:01:39.627Z,44.94
2022-09-20T23:04:10.813Z,43.95
2022-09-20T23:06:43.256Z,44.85
2022-09-20T23:09:14.483Z,44.78
2022-09-20T23:11:42.745Z,44.30
2022-09-20T23:14:15.016Z,44.37
2022-09-20T23:16:42.761Z,43.52
2022-09-20T23:19:10.953Z,44.33
2022-09-20T23:21:39.087Z,43.74
2022-09-20T23:24:08.150Z,43.85
2022-09-20T23:26:37.152Z,43.69
2022-09-20T23:29:05.628Z,44.18
2022-09-20T23:31:34.575Z,43.57
2022-09-20T23:34:03.730Z,43.86
2022-09-20T23:36:34.178Z,43.18
2022-09-20T23:39:02.141Z,43.16
2022-09-20T23:41:29.220Z,44.05
2022-09-20T23:43:56.472Z,43.89
2022-09-20T23:46:24.750Z,43.88
2022-09-20T23:48:51.618Z,44.21
2022-09-20T23:51:22.755Z,43.75
2022-09-20T23:53:50.885Z,44.13
2022-09-20T23:56:18.938Z,44.29
2022-09-20T23:58:45.968Z,44.47
